sensor_id;sensor_type;location;lat;lon;timestamp;P1;durP1;ratioP1;P2;durP2;ratioP2
31758;SDS011;36334;51.366;0.020;2022-09-12T00:01:05;23.73;;;16.60;;
31758;SDS011;36334;51.366;0.020;2022-09-12T00:03:58;31.38;;;20.73;;
31758;SDS011;36334;51.366;0.020;2022-09-12T00:06:48;24.08;;;19.13;;
31758;SDS011;36334;51.366;0.020;2022-09-12T00:09:34;27.08;;;18.60;;
31758;SDS011;36334;51.366;0.020;2022-09-12T00:12:20;26.50;;;19.55;;
31758;SDS011;36334;51.366;0.020;2022-09-12T00:15:06;29.73;;;19.85;;
31758;SDS011;36334;51.366;0.020;2022-09-12T00:17:53;28.23;;;21.27;;
31758;SDS011;36334;51.366;0.020;2022-09-12T00:20:45;35.50;;;23.65;;
31758;SDS011;36334;51.366;0.020;2022-09-12T00:23:32;30.80;;;23.77;;
31758;SDS011;36334;51.366;0.020;2022-09-12T00:26:18;37.67;;;22.67;;
31758;SDS011;36334;51.366;0.020;2022-09-12T00:29:05;29.70;;;23.10;;
31758;SDS011;36334;51.366;0.020;2022-09-12T00:31:51;33.17;;;23.25;;
31758;SDS011;36334;51.366;0.020;2022-09-12T00:34:37;33.75;;;23.95;;
31758;SDS011;36334;51.366;0.020;2022-09-12T00:37:26;34.05;;;24.73;;
31758;SDS011;36334;51.366;0.020;2022-09-12T00:40:12;40.45;;;26.48;;
31758;SDS011;36334;51.366;0.020;2022-09-12T00:42:58;35.38;;;25.73;;
31758;SDS011;36334;51.366;0.020;2022-09-12T00:45:47;33.30;;;25.40;;
31758;SDS011;36334;51.366;0.020;2022-09-12T00:48:38;36.92;;;25.35;;
31758;SDS011;36334;51.366;0.020;2022-09-12T00:51:28;35.10;;;25.20;;
31758;SDS011;36334;51.366;0.020;2022-09-12T00:54:18;31.67;;;25.48;;
31758;SDS011;36334;51.366;0.020;2022-09-12T00:57:08;39.90;;;27.63;;
31758;SDS011;36334;51.366;0.020;2022-09-12T00:59:57;38.92;;;27.10;;
31758;SDS011;36334;51.366;0.020;2022-09-12T01:02:49;39.53;;;27.42;;
31758;SDS011;36334;51.366;0.020;2022-09-12T01:05:41;35.95;;;27.58;;
31758;SDS011;36334;51.366;0.020;2022-09-12T01:08:35;36.00;;;25.38;;
31758;SDS011;36334;51.366;0.020;2022-09-12T01:11:23;33.50;;;26.48;;
31758;SDS011;36334;51.366;0.020;2022-09-12T01:14:09;37.33;;;26.63;;
31758;SDS011;36334;51.366;0.020;2022-09-12T01:16:55;32.42;;;23.65;;
31758;SDS011;36334;51.366;0.020;2022-09-12T01:19:47;35.25;;;24.67;;
31758;SDS011;36334;51.366;0.020;2022-09-12T01:22:52;30.63;;;23.75;;
31758;SDS011;36334;51.366;0.020;2022-09-12T01:29:13;33.50;;;21.83;;
31758;SDS011;36334;51.366;0.020;2022-09-12T01:32:09;31.40;;;22.35;;
31758;SDS011;36334;51.366;0.020;2022-09-12T01:35:51;29.63;;;21.92;;
31758;SDS011;36334;51.366;0.020;2022-09-12T01:44:55;27.83;;;19.10;;
31758;SDS011;36334;51.366;0.020;2022-09-12T01:47:52;28.45;;;19.70;;
31758;SDS011;36334;51.366;0.020;2022-09-12T01:50:52;23.98;;;16.90;;
31758;SDS011;36334;51.366;0.020;2022-09-12T01:53:43;24.27;;;16.00;;
31758;SDS011;36334;51.366;0.020;2022-09-12T01:56:38;24.77;;;16.83;;
31758;SDS011;36334;51.366;0.020;2022-09-12T02:02:15;21.63;;;16.75;;
31758;SDS011;36334;51.366;0.020;2022-09-12T02:05:07;20.20;;;15.38;;
31758;SDS011;36334;51.366;0.020;2022-09-12T02:08:02;22.27;;;16.75;;
31758;SDS011;36334;51.366;0.020;2022-09-12T02:10:55;23.20;;;15.82;;
31758;SDS011;36334;51.366;0.020;2022-09-12T02:13:51;25.10;;;15.93;;
31758;SDS011;36334;51.366;0.020;2022-09-12T02:16:45;26.52;;;17.58;;
31758;SDS011;36334;51.366;0.020;2022-09-12T02:19:58;19.60;;;15.15;;
31758;SDS011;36334;51.366;0.020;2022-09-12T02:22:53;21.13;;;15.57;;
31758;SDS011;36334;51.366;0.020;2022-09-12T02:25:42;24.08;;;16.15;;
31758;SDS011;36334;51.366;0.020;2022-09-12T02:28:35;17.50;;;12.48;;
31758;SDS011;36334;51.366;0.020;2022-09-12T02:40:23;20.55;;;13.68;;
31758;SDS011;36334;51.366;0.020;2022-09-12T02:43:13;15.27;;;13.32;;
31758;SDS011;36334;51.366;0.020;2022-09-12T02:46:01;16.98;;;13.35;;
31758;SDS011;36334;51.366;0.020;2022-09-12T02:48:50;18.05;;;12.90;;
31758;SDS011;36334;51.366;0.020;2022-09-12T02:51:37;20.52;;;12.80;;
31758;SDS011;36334;51.366;0.020;2022-09-12T02:54:24;17.88;;;12.68;;
31758;SDS011;36334;51.366;0.020;2022-09-12T02:57:17;16.02;;;13.75;;
31758;SDS011;36334;51.366;0.020;2022-09-12T03:00:07;18.48;;;14.00;;
31758;SDS011;36334;51.366;0.020;2022-09-12T03:06:12;15.40;;;10.88;;
31758;SDS011;36334;51.366;0.020;2022-09-12T03:09:11;14.45;;;11.32;;
31758;SDS011;36334;51.366;0.020;2022-09-12T03:12:30;16.33;;;11.48;;
31758;SDS011;36334;51.366;0.020;2022-09-12T03:18:41;17.45;;;12.32;;
31758;SDS011;36334;51.366;0.020;2022-09-12T03:22:27;15.32;;;11.13;;
31758;SDS011;36334;51.366;0.020;2022-09-12T03:30:45;17.65;;;10.07;;
31758;SDS011;36334;51.366;0.020;2022-09-12T03:33:33;15.32;;;10.85;;
31758;SDS011;36334;51.366;0.020;2022-09-12T03:36:20;15.15;;;11.93;;
31758;SDS011;36334;51.366;0.020;2022-09-12T03:39:08;13.32;;;11.85;;
31758;SDS011;36334;51.366;0.020;2022-09-12T03:41:54;12.95;;;11.27;;
31758;SDS011;36334;51.366;0.020;2022-09-12T03:44:40;14.85;;;13.13;;
31758;SDS011;36334;51.366;0.020;2022-09-12T03:47:26;15.80;;;11.70;;
31758;SDS011;36334;51.366;0.020;2022-09-12T03:50:12;18.10;;;12.38;;
31758;SDS011;36334;51.366;0.020;2022-09-12T03:52:59;14.98;;;11.77;;
31758;SDS011;36334;51.366;0.020;2022-09-12T03:55:45;13.13;;;11.55;;
31758;SDS011;36334;51.366;0.020;2022-09-12T03:58:31;15.93;;;11.20;;
31758;SDS011;36334;51.366;0.020;2022-09-12T04:01:18;16.23;;;11.77;;
31758;SDS011;36334;51.366;0.020;2022-09-12T04:04:05;16.05;;;11.82;;
31758;SDS011;36334;51.366;0.020;2022-09-12T04:06:51;16.02;;;12.77;;
31758;SDS011;36334;51.366;0.020;2022-09-12T04:09:37;14.65;;;12.43;;
31758;SDS011;36334;51.366;0.020;2022-09-12T04:12:23;16.48;;;11.40;;
31758;SDS011;36334;51.366;0.020;2022-09-12T04:15:09;16.73;;;11.38;;
31758;SDS011;36334;51.366;0.020;2022-09-12T04:17:55;17.08;;;12.73;;
31758;SDS011;36334;51.366;0.020;2022-09-12T04:20:43;17.27;;;13.27;;
31758;SDS011;36334;51.366;0.020;2022-09-12T04:23:29;15.45;;;10.82;;
31758;SDS011;36334;51.366;0.020;2022-09-12T04:26:15;15.57;;;12.73;;
31758;SDS011;36334;51.366;0.020;2022-09-12T04:29:03;15.65;;;12.27;;
31758;SDS011;36334;51.366;0.020;2022-09-12T04:31:49;16.70;;;11.73;;
31758;SDS011;36334;51.366;0.020;2022-09-12T04:34:34;15.70;;;12.80;;
31758;SDS011;36334;51.366;0.020;2022-09-12T04:37:24;13.98;;;11.32;;
31758;SDS011;36334;51.366;0.020;2022-09-12T04:40:10;16.95;;;15.05;;
31758;SDS011;36334;51.366;0.020;2022-09-12T04:42:57;17.58;;;12.75;;
31758;SDS011;36334;51.366;0.020;2022-09-12T04:45:43;15.43;;;11.75;;
31758;SDS011;36334;51.366;0.020;2022-09-12T04:48:30;17.50;;;11.38;;
31758;SDS011;36334;51.366;0.020;2022-09-12T04:51:20;14.25;;;11.88;;
31758;SDS011;36334;51.366;0.020;2022-09-12T04:54:10;12.43;;;10.63;;
31758;SDS011;36334;51.366;0.020;2022-09-12T04:56:57;13.82;;;10.05;;
31758;SDS011;36334;51.366;0.020;2022-09-12T04:59:44;12.88;;;10.57;;
31758;SDS011;36334;51.366;0.020;2022-09-12T05:02:32;13.38;;;10.45;;
31758;SDS011;36334;51.366;0.020;2022-09-12T05:05:19;13.35;;;10.52;;
31758;SDS011;36334;51.366;0.020;2022-09-12T05:08:06;13.55;;;10.73;;
31758;SDS011;36334;51.366;0.020;2022-09-12T05:10:53;14.52;;;10.75;;
31758;SDS011;36334;51.366;0.020;2022-09-12T05:13:39;15.52;;;10.85;;
31758;SDS011;36334;51.366;0.020;2022-09-12T05:16:26;15.52;;;11.23;;
31758;SDS011;36334;51.366;0.020;2022-09-12T05:19:13;13.52;;;10.30;;
31758;SDS011;36334;51.366;0.020;2022-09-12T05:21:59;13.60;;;10.82;;
31758;SDS011;36334;51.366;0.020;2022-09-12T05:24:45;12.70;;;10.07;;
31758;SDS011;36334;51.366;0.020;2022-09-12T05:27:35;15.50;;;10.25;;
31758;SDS011;36334;51.366;0.020;2022-09-12T05:30:21;12.48;;;9.07;;
31758;SDS011;36334;51.366;0.020;2022-09-12T05:33:07;16.42;;;9.63;;
31758;SDS011;36334;51.366;0.020;2022-09-12T05:35:53;14.80;;;9.80;;
31758;SDS011;36334;51.366;0.020;2022-09-12T05:38:39;11.88;;;9.65;;
31758;SDS011;36334;51.366;0.020;2022-09-12T05:41:26;11.68;;;8.85;;
31758;SDS011;36334;51.366;0.020;2022-09-12T05:44:15;15.45;;;9.25;;
31758;SDS011;36334;51.366;0.020;2022-09-12T05:47:01;10.98;;;9.32;;
31758;SDS011;36334;51.366;0.020;2022-09-12T05:49:47;9.73;;;7.53;;
31758;SDS011;36334;51.366;0.020;2022-09-12T05:52:36;11.20;;;8.15;;
31758;SDS011;36334;51.366;0.020;2022-09-12T05:55:23;12.30;;;7.72;;
31758;SDS011;36334;51.366;0.020;2022-09-12T05:58:09;10.90;;;7.88;;
31758;SDS011;36334;51.366;0.020;2022-09-12T06:00:55;11.77;;;7.60;;
31758;SDS011;36334;51.366;0.020;2022-09-12T06:03:48;10.43;;;7.43;;
31758;SDS011;36334;51.366;0.020;2022-09-12T06:06:40;11.95;;;6.63;;
31758;SDS011;36334;51.366;0.020;2022-09-12T06:09:29;11.15;;;6.78;;
31758;SDS011;36334;51.366;0.020;2022-09-12T06:12:16;7.57;;;6.72;;
31758;SDS011;36334;51.366;0.020;2022-09-12T06:15:02;8.82;;;6.28;;
31758;SDS011;36334;51.366;0.020;2022-09-12T06:17:48;7.32;;;5.93;;
31758;SDS011;36334;51.366;0.020;2022-09-12T06:20:36;7.60;;;5.70;;
31758;SDS011;36334;51.366;0.020;2022-09-12T06:23:21;9.30;;;5.88;;
31758;SDS011;36334;51.366;0.020;2022-09-12T06:26:09;5.38;;;4.88;;
31758;SDS011;36334;51.366;0.020;2022-09-12T06:28:56;6.05;;;4.88;;
31758;SDS011;36334;51.366;0.020;2022-09-12T06:31:44;7.72;;;4.65;;
31758;SDS011;36334;51.366;0.020;2022-09-12T06:34:30;5.82;;;4.45;;
31758;SDS011;36334;51.366;0.020;2022-09-12T06:37:18;7.13;;;4.30;;
31758;SDS011;36334;51.366;0.020;2022-09-12T06:40:04;5.95;;;4.10;;
31758;SDS011;36334;51.366;0.020;2022-09-12T06:42:54;11.13;;;4.22;;
31758;SDS011;36334;51.366;0.020;2022-09-12T06:45:50;7.47;;;3.95;;
31758;SDS011;36334;51.366;0.020;2022-09-12T06:48:36;6.07;;;3.45;;
31758;SDS011;36334;51.366;0.020;2022-09-12T06:51:27;6.10;;;4.32;;
31758;SDS011;36334;51.366;0.020;2022-09-12T06:54:14;9.43;;;4.40;;
31758;SDS011;36334;51.366;0.020;2022-09-12T06:57:02;6.53;;;3.60;;
31758;SDS011;36334;51.366;0.020;2022-09-12T06:59:48;5.63;;;4.20;;
31758;SDS011;36334;51.366;0.020;2022-09-12T07:02:35;5.82;;;3.45;;
31758;SDS011;36334;51.366;0.020;2022-09-12T07:05:21;4.25;;;3.35;;
31758;SDS011;36334;51.366;0.020;2022-09-12T07:08:07;6.55;;;3.50;;
31758;SDS011;36334;51.366;0.020;2022-09-12T07:10:53;4.88;;;3.55;;
31758;SDS011;36334;51.366;0.020;2022-09-12T07:13:40;6.35;;;3.53;;
31758;SDS011;36334;51.366;0.020;2022-09-12T07:16:27;5.88;;;3.28;;
31758;SDS011;36334;51.366;0.020;2022-09-12T07:19:15;6.38;;;3.25;;
31758;SDS011;36334;51.366;0.020;2022-09-12T07:22:01;4.80;;;3.42;;
31758;SDS011;36334;51.366;0.020;2022-09-12T07:24:47;5.00;;;3.63;;
31758;SDS011;36334;51.366;0.020;2022-09-12T07:27:34;7.15;;;3.40;;
31758;SDS011;36334;51.366;0.020;2022-09-12T07:30:22;6.88;;;3.33;;
31758;SDS011;36334;51.366;0.020;2022-09-12T07:33:08;4.57;;;3.45;;
31758;SDS011;36334;51.366;0.020;2022-09-12T07:35:54;5.75;;;3.38;;
31758;SDS011;36334;51.366;0.020;2022-09-12T07:38:45;7.90;;;3.50;;
31758;SDS011;36334;51.366;0.020;2022-09-12T07:41:32;6.55;;;3.10;;
31758;SDS011;36334;51.366;0.020;2022-09-12T07:44:20;4.88;;;3.00;;
31758;SDS011;36334;51.366;0.020;2022-09-12T07:47:07;5.60;;;3.35;;
31758;SDS011;36334;51.366;0.020;2022-09-12T07:49:53;5.13;;;3.13;;
31758;SDS011;36334;51.366;0.020;2022-09-12T07:52:39;4.80;;;3.00;;
31758;SDS011;36334;51.366;0.020;2022-09-12T07:55:25;5.90;;;2.92;;
31758;SDS011;36334;51.366;0.020;2022-09-12T07:58:11;5.53;;;3.03;;
31758;SDS011;36334;51.366;0.020;2022-09-12T08:01:01;4.03;;;2.65;;
31758;SDS011;36334;51.366;0.020;2022-09-12T08:03:55;4.30;;;3.00;;
31758;SDS011;36334;51.366;0.020;2022-09-12T08:06:42;7.03;;;2.97;;
31758;SDS011;36334;51.366;0.020;2022-09-12T08:09:28;6.45;;;3.28;;
31758;SDS011;36334;51.366;0.020;2022-09-12T08:12:14;18.17;;;4.13;;
31758;SDS011;36334;51.366;0.020;2022-09-12T08:15:02;5.60;;;3.30;;
31758;SDS011;36334;51.366;0.020;2022-09-12T08:17:48;4.72;;;3.22;;
31758;SDS011;36334;51.366;0.020;2022-09-12T08:20:34;4.68;;;2.78;;
31758;SDS011;36334;51.366;0.020;2022-09-12T08:23:21;5.07;;;2.75;;
31758;SDS011;36334;51.366;0.020;2022-09-12T08:26:08;3.90;;;2.63;;
31758;SDS011;36334;51.366;0.020;2022-09-12T08:28:55;3.03;;;2.25;;
31758;SDS011;36334;51.366;0.020;2022-09-12T08:31:41;4.60;;;2.90;;
31758;SDS011;36334;51.366;0.020;2022-09-12T08:34:27;5.45;;;2.88;;
31758;SDS011;36334;51.366;0.020;2022-09-12T08:37:14;5.40;;;2.85;;
31758;SDS011;36334;51.366;0.020;2022-09-12T08:40:00;5.75;;;3.25;;
31758;SDS011;36334;51.366;0.020;2022-09-12T08:46:31;4.97;;;2.50;;
31758;SDS011;36334;51.366;0.020;2022-09-12T08:49:12;5.15;;;2.80;;
31758;SDS011;36334;51.366;0.020;2022-09-12T08:52:05;5.45;;;2.40;;
31758;SDS011;36334;51.366;0.020;2022-09-12T08:54:57;5.53;;;2.57;;
31758;SDS011;36334;51.366;0.020;2022-09-12T08:57:43;6.32;;;2.38;;
31758;SDS011;36334;51.366;0.020;2022-09-12T09:00:49;7.93;;;2.35;;
31758;SDS011;36334;51.366;0.020;2022-09-12T09:10:07;4.78;;;3.63;;
31758;SDS011;36334;51.366;0.020;2022-09-12T09:19:32;5.53;;;2.80;;
31758;SDS011;36334;51.366;0.020;2022-09-12T09:25:36;4.15;;;2.80;;
31758;SDS011;36334;51.366;0.020;2022-09-12T09:28:46;5.72;;;2.38;;
31758;SDS011;36334;51.366;0.020;2022-09-12T09:31:45;7.18;;;2.45;;
31758;SDS011;36334;51.366;0.020;2022-09-12T09:34:34;7.72;;;2.55;;
31758;SDS011;36334;51.366;0.020;2022-09-12T09:37:37;3.85;;;2.47;;
31758;SDS011;36334;51.366;0.020;2022-09-12T09:40:41;2.65;;;1.85;;
31758;SDS011;36334;51.366;0.020;2022-09-12T09:43:37;5.63;;;2.30;;
31758;SDS011;36334;51.366;0.020;2022-09-12T09:46:24;3.95;;;2.40;;
31758;SDS011;36334;51.366;0.020;2022-09-12T09:49:12;4.55;;;2.60;;
31758;SDS011;36334;51.366;0.020;2022-09-12T09:52:00;5.57;;;2.80;;
31758;SDS011;36334;51.366;0.020;2022-09-12T09:54:52;6.18;;;2.28;;
31758;SDS011;36334;51.366;0.020;2022-09-12T09:57:42;4.35;;;2.45;;
31758;SDS011;36334;51.366;0.020;2022-09-12T10:00:36;8.73;;;2.95;;
31758;SDS011;36334;51.366;0.020;2022-09-12T10:03:24;6.70;;;3.40;;
31758;SDS011;36334;51.366;0.020;2022-09-12T10:06:33;7.10;;;3.53;;
31758;SDS011;36334;51.366;0.020;2022-09-12T10:09:24;5.75;;;3.67;;
31758;SDS011;36334;51.366;0.020;2022-09-12T10:12:25;7.25;;;3.85;;
31758;SDS011;36334;51.366;0.020;2022-09-12T10:15:23;6.25;;;3.47;;
31758;SDS011;36334;51.366;0.020;2022-09-12T10:18:24;7.30;;;3.55;;
31758;SDS011;36334;51.366;0.020;2022-09-12T10:24:21;6.53;;;3.65;;
31758;SDS011;36334;51.366;0.020;2022-09-12T10:30:34;8.57;;;3.33;;
31758;SDS011;36334;51.366;0.020;2022-09-12T10:33:13;6.10;;;3.05;;
31758;SDS011;36334;51.366;0.020;2022-09-12T10:35:59;6.00;;;3.38;;
31758;SDS011;36334;51.366;0.020;2022-09-12T10:38:50;8.32;;;4.55;;
31758;SDS011;36334;51.366;0.020;2022-09-12T10:41:44;7.88;;;4.55;;
31758;SDS011;36334;51.366;0.020;2022-09-12T10:44:32;11.13;;;4.60;;
31758;SDS011;36334;51.366;0.020;2022-09-12T10:47:21;7.63;;;4.88;;
31758;SDS011;36334;51.366;0.020;2022-09-12T10:56:19;9.98;;;5.13;;
31758;SDS011;36334;51.366;0.020;2022-09-12T11:05:21;10.23;;;6.75;;
31758;SDS011;36334;51.366;0.020;2022-09-12T11:11:48;47.50;;;42.17;;
31758;SDS011;36334;51.366;0.020;2022-09-12T11:14:45;32.88;;;29.33;;
31758;SDS011;36334;51.366;0.020;2022-09-12T11:33:46;58.40;;;36.70;;
31758;SDS011;36334;51.366;0.020;2022-09-12T11:36:59;130.02;;;94.97;;
31758;SDS011;36334;51.366;0.020;2022-09-12T11:40:13;26.55;;;16.98;;
31758;SDS011;36334;51.366;0.020;2022-09-12T11:46:30;21.83;;;13.30;;
31758;SDS011;36334;51.366;0.020;2022-09-12T11:49:31;16.60;;;9.70;;
31758;SDS011;36334;51.366;0.020;2022-09-12T11:52:22;109.32;;;71.38;;
31758;SDS011;36334;51.366;0.020;2022-09-12T11:55:19;21.23;;;12.82;;
31758;SDS011;36334;51.366;0.020;2022-09-12T11:58:09;47.08;;;32.85;;
31758;SDS011;36334;51.366;0.020;2022-09-12T12:01:11;24.88;;;16.52;;
31758;SDS011;36334;51.366;0.020;2022-09-12T12:04:07;16.85;;;11.30;;
31758;SDS011;36334;51.366;0.020;2022-09-12T12:07:08;17.10;;;10.13;;
31758;SDS011;36334;51.366;0.020;2022-09-12T12:09:55;16.60;;;10.32;;
31758;SDS011;36334;51.366;0.020;2022-09-12T12:12:42;15.10;;;9.80;;
31758;SDS011;36334;51.366;0.020;2022-09-12T12:15:28;18.67;;;11.25;;
31758;SDS011;36334;51.366;0.020;2022-09-12T12:18:16;22.13;;;13.93;;
31758;SDS011;36334;51.366;0.020;2022-09-12T12:24:20;16.63;;;10.43;;
31758;SDS011;36334;51.366;0.020;2022-09-12T12:27:22;14.40;;;7.38;;
31758;SDS011;36334;51.366;0.020;2022-09-12T12:36:06;31.33;;;25.23;;
31758;SDS011;36334;51.366;0.020;2022-09-12T12:38:54;9.68;;;7.40;;
31758;SDS011;36334;51.366;0.020;2022-09-12T12:41:43;5.15;;;2.63;;
31758;SDS011;36334;51.366;0.020;2022-09-12T12:53:15;7.80;;;3.67;;
31758;SDS011;36334;51.366;0.020;2022-09-12T12:59:23;7.70;;;4.53;;
31758;SDS011;36334;51.366;0.020;2022-09-12T13:02:21;6.63;;;3.22;;
31758;SDS011;36334;51.366;0.020;2022-09-12T13:05:16;5.15;;;2.20;;
31758;SDS011;36334;51.366;0.020;2022-09-12T13:08:09;3.50;;;2.10;;
31758;SDS011;36334;51.366;0.020;2022-09-12T13:11:10;4.75;;;2.20;;
31758;SDS011;36334;51.366;0.020;2022-09-12T13:14:04;4.07;;;2.30;;
31758;SDS011;36334;51.366;0.020;2022-09-12T13:16:55;4.95;;;2.00;;
31758;SDS011;36334;51.366;0.020;2022-09-12T13:19:44;3.83;;;1.88;;
31758;SDS011;36334;51.366;0.020;2022-09-12T13:22:38;4.03;;;2.25;;
31758;SDS011;36334;51.366;0.020;2022-09-12T13:25:28;4.28;;;2.22;;
31758;SDS011;36334;51.366;0.020;2022-09-12T13:28:19;4.78;;;2.13;;
31758;SDS011;36334;51.366;0.020;2022-09-12T13:31:11;4.47;;;1.90;;
31758;SDS011;36334;51.366;0.020;2022-09-12T13:34:09;5.72;;;2.35;;
31758;SDS011;36334;51.366;0.020;2022-09-12T13:43:12;5.63;;;2.50;;
31758;SDS011;36334;51.366;0.020;2022-09-12T13:46:03;4.35;;;1.98;;
31758;SDS011;36334;51.366;0.020;2022-09-12T13:48:52;3.47;;;2.22;;
31758;SDS011;36334;51.366;0.020;2022-09-12T13:51:39;6.70;;;2.88;;
31758;SDS011;36334;51.366;0.020;2022-09-12T13:54:24;17.05;;;8.77;;
31758;SDS011;36334;51.366;0.020;2022-09-12T13:57:28;24.50;;;10.05;;
31758;SDS011;36334;51.366;0.020;2022-09-12T14:00:16;5.28;;;2.75;;
31758;SDS011;36334;51.366;0.020;2022-09-12T14:03:26;6.45;;;3.05;;
31758;SDS011;36334;51.366;0.020;2022-09-12T14:06:44;3.33;;;2.20;;
31758;SDS011;36334;51.366;0.020;2022-09-12T14:09:34;4.15;;;2.30;;
31758;SDS011;36334;51.366;0.020;2022-09-12T14:15:19;4.65;;;2.78;;
31758;SDS011;36334;51.366;0.020;2022-09-12T14:18:18;5.30;;;3.17;;
31758;SDS011;36334;51.366;0.020;2022-09-12T14:21:29;3.63;;;2.13;;
31758;SDS011;36334;51.366;0.020;2022-09-12T14:24:18;5.70;;;2.85;;
31758;SDS011;36334;51.366;0.020;2022-09-12T14:27:08;8.32;;;2.83;;
31758;SDS011;36334;51.366;0.020;2022-09-12T14:30:06;5.30;;;2.45;;
31758;SDS011;36334;51.366;0.020;2022-09-12T14:42:18;6.93;;;1.95;;
31758;SDS011;36334;51.366;0.020;2022-09-12T14:45:14;9.70;;;2.13;;
31758;SDS011;36334;51.366;0.020;2022-09-12T14:48:16;4.18;;;1.83;;
31758;SDS011;36334;51.366;0.020;2022-09-12T14:51:03;2.92;;;1.83;;
31758;SDS011;36334;51.366;0.020;2022-09-12T14:53:50;2.33;;;1.60;;
31758;SDS011;36334;51.366;0.020;2022-09-12T14:56:41;3.58;;;1.77;;
31758;SDS011;36334;51.366;0.020;2022-09-12T14:59:38;4.15;;;1.95;;
31758;SDS011;36334;51.366;0.020;2022-09-12T15:02:25;4.53;;;1.60;;
31758;SDS011;36334;51.366;0.020;2022-09-12T15:07:59;2.72;;;1.35;;
31758;SDS011;36334;51.366;0.020;2022-09-12T15:10:45;2.95;;;1.75;;
31758;SDS011;36334;51.366;0.020;2022-09-12T15:13:37;2.58;;;1.50;;
31758;SDS011;36334;51.366;0.020;2022-09-12T15:16:25;4.13;;;2.00;;
31758;SDS011;36334;51.366;0.020;2022-09-12T15:19:11;2.78;;;1.40;;
31758;SDS011;36334;51.366;0.020;2022-09-12T15:21:57;5.03;;;2.10;;
31758;SDS011;36334;51.366;0.020;2022-09-12T15:24:43;2.55;;;1.75;;
31758;SDS011;36334;51.366;0.020;2022-09-12T15:27:30;3.53;;;2.08;;
31758;SDS011;36334;51.366;0.020;2022-09-12T15:30:16;2.78;;;1.92;;
31758;SDS011;36334;51.366;0.020;2022-09-12T15:33:03;3.88;;;1.90;;
31758;SDS011;36334;51.366;0.020;2022-09-12T15:35:49;3.15;;;1.83;;
31758;SDS011;36334;51.366;0.020;2022-09-12T15:38:36;3.70;;;1.77;;
31758;SDS011;36334;51.366;0.020;2022-09-12T15:41:33;2.67;;;1.90;;
31758;SDS011;36334;51.366;0.020;2022-09-12T15:44:27;4.25;;;1.50;;
31758;SDS011;36334;51.366;0.020;2022-09-12T15:47:12;3.08;;;1.70;;
31758;SDS011;36334;51.366;0.020;2022-09-12T15:49:59;3.92;;;1.80;;
31758;SDS011;36334;51.366;0.020;2022-09-12T15:52:46;3.92;;;1.75;;
31758;SDS011;36334;51.366;0.020;2022-09-12T15:55:33;5.20;;;2.10;;
31758;SDS011;36334;51.366;0.020;2022-09-12T15:58:20;5.90;;;2.33;;
31758;SDS011;36334;51.366;0.020;2022-09-12T16:01:08;6.00;;;2.65;;
31758;SDS011;36334;51.366;0.020;2022-09-12T16:03:57;4.18;;;2.17;;
31758;SDS011;36334;51.366;0.020;2022-09-12T16:06:43;3.95;;;2.28;;
31758;SDS011;36334;51.366;0.020;2022-09-12T16:09:29;4.07;;;1.90;;
31758;SDS011;36334;51.366;0.020;2022-09-12T16:12:15;3.13;;;1.80;;
31758;SDS011;36334;51.366;0.020;2022-09-12T16:15:01;2.65;;;1.70;;
31758;SDS011;36334;51.366;0.020;2022-09-12T16:17:47;4.15;;;1.58;;
31758;SDS011;36334;51.366;0.020;2022-09-12T16:20:33;3.47;;;1.85;;
31758;SDS011;36334;51.366;0.020;2022-09-12T16:23:19;6.03;;;2.30;;
31758;SDS011;36334;51.366;0.020;2022-09-12T16:26:06;3.78;;;1.98;;
31758;SDS011;36334;51.366;0.020;2022-09-12T16:28:55;4.43;;;1.95;;
31758;SDS011;36334;51.366;0.020;2022-09-12T16:31:41;3.17;;;2.00;;
31758;SDS011;36334;51.366;0.020;2022-09-12T16:34:27;4.57;;;1.80;;
31758;SDS011;36334;51.366;0.020;2022-09-12T16:37:13;3.88;;;2.00;;
31758;SDS011;36334;51.366;0.020;2022-09-12T16:39:59;4.03;;;1.80;;
31758;SDS011;36334;51.366;0.020;2022-09-12T16:42:46;6.13;;;2.40;;
31758;SDS011;36334;51.366;0.020;2022-09-12T16:45:32;3.17;;;1.90;;
31758;SDS011;36334;51.366;0.020;2022-09-12T16:48:18;3.53;;;1.85;;
31758;SDS011;36334;51.366;0.020;2022-09-12T16:51:05;4.22;;;2.72;;
31758;SDS011;36334;51.366;0.020;2022-09-12T16:53:52;3.15;;;2.30;;
31758;SDS011;36334;51.366;0.020;2022-09-12T16:56:39;4.50;;;2.10;;
31758;SDS011;36334;51.366;0.020;2022-09-12T16:59:26;5.40;;;2.08;;
31758;SDS011;36334;51.366;0.020;2022-09-12T17:02:12;5.20;;;2.03;;
31758;SDS011;36334;51.366;0.020;2022-09-12T17:04:58;3.08;;;1.80;;
31758;SDS011;36334;51.366;0.020;2022-09-12T17:07:45;4.57;;;2.00;;
31758;SDS011;36334;51.366;0.020;2022-09-12T17:10:31;4.50;;;2.47;;
31758;SDS011;36334;51.366;0.020;2022-09-12T17:13:17;10.43;;;4.10;;
31758;SDS011;36334;51.366;0.020;2022-09-12T17:16:09;7.75;;;3.45;;
31758;SDS011;36334;51.366;0.020;2022-09-12T17:21:43;6.20;;;2.65;;
31758;SDS011;36334;51.366;0.020;2022-09-12T17:24:31;4.28;;;1.98;;
31758;SDS011;36334;51.366;0.020;2022-09-12T17:27:17;3.47;;;2.08;;
31758;SDS011;36334;51.366;0.020;2022-09-12T17:30:03;4.40;;;2.53;;
31758;SDS011;36334;51.366;0.020;2022-09-12T17:32:50;3.47;;;1.98;;
31758;SDS011;36334;51.366;0.020;2022-09-12T17:35:37;5.93;;;1.80;;
31758;SDS011;36334;51.366;0.020;2022-09-12T17:38:29;8.80;;;2.38;;
31758;SDS011;36334;51.366;0.020;2022-09-12T17:41:18;5.28;;;2.35;;
31758;SDS011;36334;51.366;0.020;2022-09-12T17:44:06;7.35;;;2.30;;
31758;SDS011;36334;51.366;0.020;2022-09-12T17:46:53;4.03;;;2.10;;
31758;SDS011;36334;51.366;0.020;2022-09-12T17:49:40;4.75;;;2.53;;
31758;SDS011;36334;51.366;0.020;2022-09-12T17:52:26;5.13;;;2.25;;
31758;SDS011;36334;51.366;0.020;2022-09-12T17:55:13;4.70;;;2.75;;
31758;SDS011;36334;51.366;0.020;2022-09-12T17:57:59;5.88;;;2.35;;
31758;SDS011;36334;51.366;0.020;2022-09-12T18:00:45;6.38;;;2.55;;
31758;SDS011;36334;51.366;0.020;2022-09-12T18:03:56;4.10;;;2.67;;
31758;SDS011;36334;51.366;0.020;2022-09-12T18:06:47;2.83;;;2.05;;
31758;SDS011;36334;51.366;0.020;2022-09-12T18:09:33;5.30;;;2.42;;
31758;SDS011;36334;51.366;0.020;2022-09-12T18:12:21;4.32;;;2.50;;
31758;SDS011;36334;51.366;0.020;2022-09-12T18:15:07;6.85;;;2.92;;
31758;SDS011;36334;51.366;0.020;2022-09-12T18:17:54;3.83;;;2.30;;
31758;SDS011;36334;51.366;0.020;2022-09-12T18:20:48;6.53;;;2.83;;
31758;SDS011;36334;51.366;0.020;2022-09-12T18:23:35;5.38;;;3.70;;
31758;SDS011;36334;51.366;0.020;2022-09-12T18:26:21;7.55;;;4.32;;
31758;SDS011;36334;51.366;0.020;2022-09-12T18:29:07;10.00;;;4.10;;
31758;SDS011;36334;51.366;0.020;2022-09-12T18:31:54;4.97;;;3.55;;
31758;SDS011;36334;51.366;0.020;2022-09-12T18:34:40;9.85;;;5.93;;
31758;SDS011;36334;51.366;0.020;2022-09-12T18:37:26;7.18;;;5.47;;
31758;SDS011;36334;51.366;0.020;2022-09-12T18:40:12;9.18;;;3.80;;
31758;SDS011;36334;51.366;0.020;2022-09-12T18:42:58;16.90;;;7.72;;
31758;SDS011;36334;51.366;0.020;2022-09-12T18:45:44;31.88;;;14.48;;
31758;SDS011;36334;51.366;0.020;2022-09-12T18:48:30;18.52;;;9.93;;
31758;SDS011;36334;51.366;0.020;2022-09-12T18:51:18;14.82;;;6.65;;
31758;SDS011;36334;51.366;0.020;2022-09-12T18:54:09;12.18;;;4.85;;
31758;SDS011;36334;51.366;0.020;2022-09-12T18:56:57;7.80;;;3.75;;
31758;SDS011;36334;51.366;0.020;2022-09-12T18:59:43;13.20;;;6.47;;
31758;SDS011;36334;51.366;0.020;2022-09-12T19:02:29;24.58;;;13.57;;
31758;SDS011;36334;51.366;0.020;2022-09-12T19:05:15;28.70;;;18.10;;
31758;SDS011;36334;51.366;0.020;2022-09-12T19:08:01;19.80;;;9.48;;
31758;SDS011;36334;51.366;0.020;2022-09-12T19:10:53;16.98;;;9.15;;
31758;SDS011;36334;51.366;0.020;2022-09-12T19:13:40;33.83;;;19.33;;